createdAt,value
2023-04-13T00:03:04.504Z,7.30
2023-04-13T00:06:10.876Z,7.20
2023-04-13T00:09:15.962Z,7.00
2023-04-13T00:12:21.254Z,6.90
2023-04-13T00:15:26.574Z,6.80
2023-04-13T00:18:29.816Z,6.70
2023-04-13T00:21:34.140Z,6.70
2023-04-13T00:24:37.356Z,6.60
2023-04-13T00:27:40.562Z,6.50
2023-04-13T00:30:45.123Z,6.40
2023-04-13T00:33:48.496Z,6.30
2023-04-13T00:36:52.483Z,6.20
2023-04-13T00:39:56.003Z,6.10
2023-04-13T00:43:00.609Z,6.00
2023-04-13T00:46:08.900Z,5.90
2023-04-13T00:49:12.677Z,5.80
2023-04-13T00:52:16.477Z,5.80
2023-04-13T00:55:22.002Z,5.70
2023-04-13T00:58:26.329Z,5.80
2023-04-13T01:01:31.559Z,5.70
2023-04-13T01:04:35.556Z,5.80
2023-04-13T01:07:44.942Z,5.80
2023-04-13T01:10:54.424Z,5.90
2023-04-13T01:14:04.146Z,5.80
2023-04-13T01:17:17.902Z,5.80
2023-04-13T01:20:22.472Z,5.70
2023-04-13T01:23:35.505Z,5.60
2023-04-13T01:26:54.545Z,5.60
2023-04-13T01:30:00.219Z,5.40
2023-04-13T01:33:04.482Z,5.30
2023-04-13T01:36:10.473Z,5.20
2023-04-13T01:39:20.430Z,5.00
2023-04-13T01:42:27.528Z,5.00
2023-04-13T01:45:40.713Z,5.00
2023-04-13T01:48:48.577Z,4.90
2023-04-13T01:52:13.139Z,4.90
2023-04-13T01:55:16.812Z,4.80
2023-04-13T01:58:28.255Z,4.70
2023-04-13T02:01:39.052Z,4.70
2023-04-13T02:04:42.914Z,4.70
2023-04-13T02:07:46.733Z,4.60
2023-04-13T02:10:50.180Z,4.70
2023-04-13T02:13:55.361Z,4.80
2023-04-13T02:17:00.163Z,4.70
2023-04-13T02:20:11.113Z,4.60
2023-04-13T02:23:15.841Z,4.40
2023-04-13T02:26:20.807Z,4.30
2023-04-13T02:29:24.708Z,4.50
2023-04-13T02:32:29.874Z,4.40
2023-04-13T02:35:35.580Z,4.30
2023-04-13T02:38:38.940Z,4.30
2023-04-13T02:41:48.629Z,4.20
2023-04-13T02:44:56.810Z,4.10
2023-04-13T02:48:02.346Z,4.00
2023-04-13T02:51:06.535Z,4.00
2023-04-13T02:54:13.470Z,3.80
2023-04-13T02:57:23.561Z,3.90
2023-04-13T03:00:28.671Z,3.90
2023-04-13T03:03:38.046Z,4.00
2023-04-13T03:06:44.255Z,4.10
2023-04-13T03:09:48.257Z,4.20
2023-04-13T03:12:53.602Z,4.30
2023-04-13T03:15:58.030Z,4.40
2023-04-13T03:19:05.539Z,4.40
2023-04-13T03:22:11.314Z,4.30
2023-04-13T03:25:21.106Z,4.20
2023-04-13T03:28:24.911Z,4.00
2023-04-13T03:31:29.244Z,4.00
2023-04-13T03:34:34.643Z,3.90
2023-04-13T03:37:44.931Z,4.00
2023-04-13T03:40:57.901Z,3.90
2023-04-13T03:44:03.769Z,3.90
2023-04-13T03:47:09.700Z,3.90
2023-04-13T03:50:15.654Z,3.70
2023-04-13T03:53:19.189Z,3.60
2023-04-13T03:56:24.976Z,3.60
2023-04-13T03:59:29.012Z,3.60
2023-04-13T04:02:33.131Z,3.60
2023-04-13T04:05:40.588Z,3.60
2023-04-13T04:08:45.504Z,3.60
2023-04-13T04:12:02.238Z,3.50
2023-04-13T04:15:15.958Z,3.70
2023-04-13T04:18:20.619Z,3.60
2023-04-13T04:21:33.877Z,3.60
2023-04-13T04:24:40.344Z,3.70
2023-04-13T04:27:46.878Z,3.70
2023-04-13T04:30:55.476Z,3.60
2023-04-13T04:34:01.170Z,3.70
2023-04-13T04:37:19.715Z,3.70
2023-04-13T04:40:35.970Z,3.80
2023-04-13T04:43:46.249Z,3.20
2023-04-13T04:46:52.415Z,3.90
2023-04-13T04:49:58.135Z,4.00
2023-04-13T04:53:04.718Z,4.20
2023-04-13T04:56:09.445Z,4.50
2023-04-13T04:59:24.067Z,4.80
2023-04-13T05:02:37.992Z,5.00
2023-04-13T05:05:45.613Z,5.40
2023-04-13T05:08:57.009Z,5.70
2023-04-13T05:12:01.799Z,5.70
2023-04-13T05:15:07.887Z,5.80
2023-04-13T05:18:13.161Z,5.90
2023-04-13T05:21:17.761Z,6.00
2023-04-13T05:24:31.145Z,6.10
2023-04-13T05:27:34.867Z,6.30
2023-04-13T05:30:38.242Z,6.30
2023-04-13T05:33:41.915Z,6.50
2023-04-13T05:36:45.237Z,6.70
2023-04-13T05:39:51.843Z,6.80
2023-04-13T05:42:59.140Z,6.90
2023-04-13T05:46:06.405Z,6.90
2023-04-13T05:49:10.672Z,7.00
2023-04-13T05:52:14.022Z,7.10
2023-04-13T05:55:23.576Z,7.20
2023-04-13T05:58:34.617Z,7.40
2023-04-13T06:02:01.027Z,7.60
2023-04-13T06:05:05.160Z,7.70
2023-04-13T06:08:10.611Z,7.90
2023-04-13T06:11:16.950Z,8.10
2023-04-13T06:14:20.921Z,8.20
2023-04-13T06:17:24.405Z,8.40
2023-04-13T06:20:28.014Z,8.50
2023-04-13T06:23:33.254Z,8.60
2023-04-13T06:26:40.949Z,8.60
2023-04-13T06:29:44.275Z,8.80
2023-04-13T06:32:48.009Z,9.00
2023-04-13T06:35:54.667Z,9.00
2023-04-13T06:38:59.068Z,9.10
2023-04-13T06:42:04.240Z,9.10
2023-04-13T06:45:43.633Z,9.30
2023-04-13T06:48:54.892Z,9.30
2023-04-13T06:52:01.842Z,9.50
2023-04-13T06:55:07.212Z,9.50
2023-04-13T06:58:15.868Z,9.60
2023-04-13T07:01:19.501Z,9.70
2023-04-13T07:04:24.474Z,9.70
2023-04-13T07:07:29.975Z,9.70
2023-04-13T07:10:37.397Z,9.80
2023-04-13T07:13:42.683Z,9.90
2023-04-13T07:16:48.309Z,9.90
2023-04-13T07:19:52.360Z,10.00
2023-04-13T07:22:55.767Z,10.10
2023-04-13T07:25:59.708Z,10.10
2023-04-13T07:29:12.114Z,10.10
2023-04-13T07:32:17.614Z,10.20
2023-04-13T07:35:22.671Z,10.30
2023-04-13T07:38:26.193Z,10.40
2023-04-13T07:41:29.585Z,10.40
2023-04-13T07:44:37.679Z,10.50
2023-04-13T07:47:43.780Z,10.60
2023-04-13T07:50:48.316Z,10.60
2023-04-13T07:53:57.199Z,10.80
2023-04-13T07:57:03.979Z,10.80
2023-04-13T08:00:12.372Z,11.00
2023-04-13T08:03:22.218Z,11.10
2023-04-13T08:06:27.170Z,11.30
2023-04-13T08:09:34.330Z,11.40
2023-04-13T08:12:37.671Z,11.30
2023-04-13T08:15:43.098Z,11.60
2023-04-13T08:18:46.932Z,11.80
2023-04-13T08:21:50.367Z,12.00
2023-04-13T08:24:54.678Z,12.10
2023-04-13T08:27:58.033Z,12.00
2023-04-13T08:31:02.952Z,12.20
2023-04-13T08:34:10.374Z,12.20
2023-04-13T08:37:16.060Z,12.20
2023-04-13T08:40:22.758Z,12.00
2023-04-13T08:43:29.107Z,11.80
2023-04-13T08:46:34.430Z,11.80
2023-04-13T08:49:40.652Z,12.00
2023-04-13T08:52:51.211Z,12.10
2023-04-13T08:55:55.942Z,12.40
2023-04-13T08:59:04.721Z,12.70
2023-04-13T09:02:10.387Z,12.90
2023-04-13T09:05:25.328Z,12.60
2023-04-13T09:08:35.649Z,12.50
2023-04-13T09:11:42.872Z,12.30
2023-04-13T09:14:46.294Z,12.40
2023-04-13T09:17:51.128Z,12.50
2023-04-13T09:20:59.854Z,12.80
2023-04-13T09:24:03.220Z,13.10
2023-04-13T09:27:06.496Z,12.90
2023-04-13T09:30:11.292Z,12.60
2023-04-13T09:33:18.090Z,12.80
2023-04-13T09:36:22.917Z,12.90
2023-04-13T09:39:28.114Z,13.00
2023-04-13T09:42:32.115Z,13.20
2023-04-13T09:45:36.451Z,13.40
2023-04-13T09:48:41.602Z,13.70
2023-04-13T09:51:44.891Z,13.60
2023-04-13T09:54:51.338Z,13.80
2023-04-13T09:57:54.836Z,14.10
2023-04-13T10:00:59.581Z,14.10
2023-04-13T10:04:06.688Z,14.40
2023-04-13T10:07:10.845Z,14.80
2023-04-13T10:10:14.190Z,14.60
2023-04-13T10:13:24.097Z,14.90
2023-04-13T10:16:54.004Z,14.70
2023-04-13T10:20:07.582Z,14.80
2023-04-13T10:23:11.849Z,15.20
2023-04-13T10:26:15.321Z,15.30
2023-04-13T10:29:29.196Z,15.40
2023-04-13T10:32:32.564Z,15.40
2023-04-13T10:35:40.041Z,15.20
2023-04-13T10:38:46.058Z,15.80
2023-04-13T10:42:00.157Z,16.10
2023-04-13T10:45:03.460Z,16.30
2023-04-13T10:48:07.695Z,16.40
2023-04-13T10:51:12.461Z,16.50
2023-04-13T10:54:16.004Z,16.70
2023-04-13T10:57:19.245Z,16.40
2023-04-13T11:00:29.303Z,16.40
2023-04-13T11:03:36.607Z,16.50
2023-04-13T11:06:41.464Z,16.50
2023-04-13T11:09:47.121Z,17.30
2023-04-13T11:12:51.359Z,17.70
2023-04-13T11:16:03.002Z,17.40
2023-04-13T11:19:06.801Z,17.90
2023-04-13T11:22:17.857Z,16.80
2023-04-13T11:25:21.082Z,16.20
2023-04-13T11:28:25.222Z,17.10
2023-04-13T11:31:39.027Z,17.60
2023-04-13T11:34:42.545Z,17.70
2023-04-13T11:37:49.527Z,18.10
2023-04-13T11:41:01.715Z,19.30
2023-04-13T11:44:15.746Z,19.50
2023-04-13T11:47:19.485Z,19.50
2023-04-13T11:50:23.447Z,19.20
2023-04-13T11:53:29.115Z,20.60
2023-04-13T11:56:32.598Z,20.90
2023-04-13T11:59:36.357Z,20.80
2023-04-13T12:03:00.510Z,21.80
2023-04-13T12:06:06.835Z,22.70
2023-04-13T12:09:18.045Z,22.50
2023-04-13T12:15:43.214Z,21.10
2023-04-13T12:18:49.834Z,20.60
2023-04-13T12:21:56.499Z,20.90
2023-04-13T12:25:02.586Z,21.10
2023-04-13T12:28:06.207Z,20.80
2023-04-13T12:31:12.527Z,21.60
2023-04-13T12:34:16.006Z,22.00
2023-04-13T12:37:19.332Z,22.10
2023-04-13T12:40:24.125Z,22.90
2023-04-13T12:43:28.145Z,23.00
2023-04-13T12:46:32.347Z,22.70
2023-04-13T12:49:35.888Z,21.50
2023-04-13T12:52:40.937Z,20.50
2023-04-13T12:55:45.623Z,21.10
2023-04-13T12:58:49.203Z,23.20
2023-04-13T13:01:52.520Z,23.30
2023-04-13T13:04:57.164Z,23.10
2023-04-13T13:08:00.557Z,21.90
2023-04-13T13:11:09.344Z,21.50
2023-04-13T13:14:12.734Z,21.20
2023-04-13T13:17:16.053Z,21.50
2023-04-13T13:20:19.282Z,22.00
2023-04-13T13:23:22.605Z,20.80
2023-04-13T13:26:30.611Z,20.60
2023-04-13T13:29:43.248Z,20.20
2023-04-13T13:32:46.454Z,19.10
2023-04-13T13:35:49.820Z,18.40
2023-04-13T13:38:53.138Z,19.30
2023-04-13T13:41:58.453Z,19.10
2023-04-13T13:45:01.873Z,19.20
2023-04-13T13:48:08.970Z,19.00
2023-04-13T13:51:21.561Z,19.30
2023-04-13T13:54:25.430Z,19.20
2023-04-13T13:57:30.080Z,19.80
2023-04-13T14:00:35.031Z,20.40
2023-04-13T14:03:39.031Z,20.80
2023-04-13T14:06:42.567Z,20.50
2023-04-13T14:09:46.628Z,20.70
2023-04-13T14:12:51.927Z,21.30
2023-04-13T14:15:56.822Z,21.80
2023-04-13T14:19:00.321Z,22.10
2023-04-13T14:22:03.733Z,22.60
2023-04-13T14:25:09.185Z,23.50
2023-04-13T14:28:14.735Z,22.80
2023-04-13T14:31:18.040Z,22.30
2023-04-13T14:34:22.178Z,21.10
2023-04-13T14:37:27.137Z,21.00
2023-04-13T14:40:30.562Z,21.20
2023-04-13T14:43:35.562Z,22.30
2023-04-13T14:46:39.339Z,21.80
2023-04-13T14:49:43.110Z,22.10
2023-04-13T14:52:47.053Z,21.40
2023-04-13T14:55:50.759Z,20.40
2023-04-13T14:58:55.392Z,20.80
2023-04-13T15:01:59.007Z,20.20
2023-04-13T15:05:03.084Z,21.40
2023-04-13T15:08:07.324Z,21.40
2023-04-13T15:11:10.843Z,20.20
2023-04-13T15:14:15.624Z,21.20
2023-04-13T15:17:18.883Z,20.20
2023-04-13T15:20:22.120Z,21.80
2023-04-13T15:23:25.524Z,21.80
2023-04-13T15:26:30.468Z,21.90
2023-04-13T15:29:35.071Z,22.70
2023-04-13T15:32:38.311Z,22.30
2023-04-13T15:35:41.730Z,22.70
2023-04-13T15:38:44.948Z,23.90
2023-04-13T15:41:48.165Z,24.10
2023-04-13T15:44:53.586Z,24.20
2023-04-13T15:47:57.075Z,24.30
2023-04-13T15:51:00.545Z,23.40
2023-04-13T15:54:03.784Z,23.20
2023-04-13T15:57:07.081Z,24.10
2023-04-13T16:00:13.396Z,23.90
2023-04-13T16:03:17.400Z,25.00
2023-04-13T16:06:20.743Z,24.00
2023-04-13T16:09:24.447Z,23.20
2023-04-13T16:12:31.408Z,23.50
2023-04-13T16:15:37.125Z,23.80
2023-04-13T16:18:40.626Z,23.00
2023-04-13T16:21:43.915Z,23.10
2023-04-13T16:24:47.089Z,22.50
2023-04-13T16:27:50.605Z,22.00
2023-04-13T16:30:55.190Z,21.30
2023-04-13T16:33:58.538Z,21.00
2023-04-13T16:37:01.765Z,20.30
2023-04-13T16:40:09.218Z,19.40
2023-04-13T16:43:12.542Z,18.70
2023-04-13T16:46:17.339Z,17.80
2023-04-13T16:49:20.785Z,17.10
2023-04-13T16:52:24.148Z,16.40
2023-04-13T16:55:28.893Z,15.50
2023-04-13T16:58:35.205Z,14.80
2023-04-13T17:01:40.932Z,14.30
2023-04-13T17:04:44.918Z,13.60
2023-04-13T17:07:48.913Z,14.10
2023-04-13T17:10:53.206Z,13.50
2023-04-13T17:13:57.317Z,13.20
2023-04-13T17:17:03.062Z,13.00
2023-04-13T17:20:08.558Z,12.80
2023-04-13T17:23:12.776Z,12.50
2023-04-13T17:26:16.742Z,12.20
2023-04-13T17:29:22.099Z,11.50
2023-04-13T17:32:27.507Z,11.30
2023-04-13T17:35:31.782Z,11.70
2023-04-13T17:38:36.161Z,11.40
2023-04-13T17:41:41.890Z,11.20
2023-04-13T17:44:46.162Z,11.10
2023-04-13T17:47:51.594Z,11.00
2023-04-13T17:50:55.236Z,10.90
2023-04-13T17:53:59.085Z,10.80
2023-04-13T17:57:03.007Z,10.70
2023-04-13T18:00:09.793Z,10.60
2023-04-13T18:03:16.627Z,10.60
2023-04-13T18:06:20.397Z,10.50
2023-04-13T18:09:25.460Z,10.30
2023-04-13T18:12:28.761Z,10.10
2023-04-13T18:15:34.312Z,9.90
2023-04-13T18:18:39.100Z,9.70
2023-04-13T18:21:42.279Z,9.60
2023-04-13T18:24:45.698Z,9.60
2023-04-13T18:27:49.274Z,9.50
2023-04-13T18:30:52.606Z,9.50
2023-04-13T18:33:57.708Z,9.40
2023-04-13T18:37:01.152Z,9.40
2023-04-13T18:40:05.380Z,9.30
2023-04-13T18:43:08.816Z,9.10
2023-04-13T18:46:12.858Z,8.80
2023-04-13T18:49:17.742Z,8.70
2023-04-13T18:52:21.588Z,8.60
2023-04-13T18:55:26.849Z,8.40
2023-04-13T18:58:30.554Z,8.40
2023-04-13T19:01:33.935Z,8.40
2023-04-13T19:04:40.145Z,8.30
2023-04-13T19:07:45.804Z,8.30
2023-04-13T19:10:50.246Z,8.30
2023-04-13T19:13:53.759Z,8.20
2023-04-13T19:16:57.824Z,8.00
2023-04-13T19:20:04.013Z,8.00
2023-04-13T19:23:07.788Z,7.80
2023-04-13T19:26:11.299Z,7.80
2023-04-13T19:29:16.077Z,7.70
2023-04-13T19:32:19.493Z,7.80
2023-04-13T19:35:26.265Z,7.80
2023-04-13T19:38:29.913Z,8.00
2023-04-13T19:41:33.761Z,8.00
2023-04-13T19:44:37.148Z,8.10
2023-04-13T19:47:42.519Z,8.20
2023-04-13T19:50:47.433Z,8.10
2023-04-13T19:53:51.026Z,8.10
2023-04-13T19:56:54.520Z,8.10
2023-04-13T19:59:58.339Z,8.10
2023-04-13T20:03:04.345Z,8.10
2023-04-13T20:06:09.501Z,8.20
2023-04-13T20:09:15.333Z,8.30
2023-04-13T20:12:19.208Z,8.30
2023-04-13T20:15:22.802Z,8.30
2023-04-13T20:18:27.560Z,8.30
2023-04-13T20:21:33.108Z,7.90
2023-04-13T20:24:36.468Z,8.30
2023-04-13T20:27:42.289Z,8.40
2023-04-13T20:30:45.977Z,8.40
2023-04-13T20:33:49.919Z,8.40
2023-04-13T20:36:56.515Z,8.30
2023-04-13T20:39:59.876Z,8.30
2023-04-13T20:43:04.762Z,8.20
2023-04-13T20:46:08.716Z,8.30
2023-04-13T20:49:12.159Z,8.30
2023-04-13T20:52:18.198Z,8.30
2023-04-13T20:55:22.250Z,8.30
2023-04-13T20:58:25.538Z,8.30
2023-04-13T21:01:30.193Z,8.20
2023-04-13T21:04:33.555Z,8.30
2023-04-13T21:07:40.245Z,8.30
2023-04-13T21:10:44.238Z,8.30
2023-04-13T21:13:47.574Z,8.20
2023-04-13T21:16:51.078Z,8.20
2023-04-13T21:19:54.408Z,8.30
2023-04-13T21:22:59.484Z,8.30
2023-04-13T21:26:02.921Z,8.30
2023-04-13T21:29:07.495Z,8.30
2023-04-13T21:32:11.044Z,8.30
2023-04-13T21:35:17.265Z,8.30
2023-04-13T21:38:21.934Z,8.40
2023-04-13T21:41:25.287Z,8.50
2023-04-13T21:44:30.143Z,8.50
2023-04-13T21:47:33.770Z,8.50
2023-04-13T21:50:37.039Z,8.50
2023-04-13T21:53:41.726Z,8.40
2023-04-13T21:56:46.747Z,8.50
2023-04-13T21:59:50.034Z,8.50
2023-04-13T22:02:55.333Z,8.50
2023-04-13T22:05:59.972Z,8.40
2023-04-13T22:09:04.906Z,8.50
2023-04-13T22:12:10.372Z,8.40
2023-04-13T22:15:13.613Z,8.50
2023-04-13T22:18:17.023Z,8.40
2023-04-13T22:21:20.628Z,8.40
2023-04-13T22:24:25.193Z,8.40
2023-04-13T22:27:28.363Z,8.30
2023-04-13T22:30:31.550Z,8.20
2023-04-13T22:33:36.029Z,8.20
2023-04-13T22:36:39.388Z,8.00
2023-04-13T22:39:44.118Z,8.00
2023-04-13T22:42:47.330Z,7.90
2023-04-13T22:45:59.015Z,7.80
2023-04-13T22:49:03.359Z,7.80
2023-04-13T22:52:32.037Z,7.70
2023-04-13T22:55:36.704Z,7.60
2023-04-13T22:58:39.981Z,7.50
2023-04-13T23:01:43.276Z,7.40
2023-04-13T23:04:46.846Z,7.40
2023-04-13T23:07:50.620Z,7.40
2023-04-13T23:10:55.213Z,7.30
2023-04-13T23:14:00.614Z,7.20
2023-04-13T23:17:03.883Z,7.10
2023-04-13T23:20:08.243Z,7.00
2023-04-13T23:23:11.836Z,7.00
2023-04-13T23:26:16.530Z,7.00
2023-04-13T23:29:22.065Z,6.90
2023-04-13T23:32:25.585Z,6.90
2023-04-13T23:35:28.862Z,6.80
2023-04-13T23:38:33.083Z,6.80
2023-04-13T23:41:37.697Z,6.70
2023-04-13T23:44:40.977Z,6.60
2023-04-13T23:47:44.222Z,6.50
2023-04-13T23:50:48.227Z,6.50
2023-04-13T23:53:51.421Z,6.60
2023-04-13T23:56:56.483Z,6.60
2023-04-13T23:59:59.600Z,6.70
